createdAt,value
2022-09-04T00:01:01.639Z,18.02
2022-09-04T00:03:32.218Z,15.02
2022-09-04T00:06:05.935Z,17.35
2022-09-04T00:08:59.526Z,15.95
2022-09-04T00:11:52.956Z,16.50
2022-09-04T00:14:35.165Z,16.75
2022-09-04T00:17:09.295Z,16.90
2022-09-04T00:19:59.786Z,17.45
2022-09-04T00:23:04.475Z,16.80
2022-09-04T00:25:50.847Z,17.95
2022-09-04T00:28:45.615Z,20.55
2022-09-04T00:31:30.475Z,20.35
2022-09-04T00:34:19.786Z,19.98
2022-09-04T00:36:51.855Z,19.02
2022-09-04T00:39:29.512Z,19.00
2022-09-04T00:42:24.711Z,18.60
2022-09-04T00:45:01.495Z,18.55
2022-09-04T00:47:48.905Z,15.75
2022-09-04T00:50:23.167Z,15.82
2022-09-04T00:53:13.257Z,14.98
2022-09-04T00:56:06.096Z,14.82
2022-09-04T00:59:16.627Z,14.13
2022-09-04T01:01:48.066Z,14.45
2022-09-04T01:04:26.286Z,14.40
2022-09-04T01:07:17.335Z,14.95
2022-09-04T01:10:13.798Z,15.60
2022-09-04T01:13:41.636Z,15.35
2022-09-04T01:16:44.524Z,14.90
2022-09-04T01:19:21.417Z,16.02
2022-09-04T01:22:30.345Z,13.95
2022-09-04T01:25:30.357Z,14.18
2022-09-04T01:28:07.537Z,13.93
2022-09-04T01:30:47.896Z,13.60
2022-09-04T01:33:20.930Z,12.57
2022-09-04T01:35:55.401Z,12.45
2022-09-04T01:38:47.736Z,11.02
2022-09-04T01:41:37.700Z,11.75
2022-09-04T01:44:08.436Z,11.80
2022-09-04T01:46:42.156Z,10.73
2022-09-04T01:49:20.947Z,12.05
2022-09-04T01:52:21.936Z,11.93
2022-09-04T01:55:25.846Z,13.30
2022-09-04T01:58:08.207Z,13.73
2022-09-04T02:00:49.695Z,13.07
2022-09-04T02:03:22.515Z,14.75
2022-09-04T02:06:05.236Z,14.75
2022-09-04T02:08:42.337Z,16.13
2022-09-04T02:11:27.795Z,16.88
2022-09-04T02:14:14.545Z,17.65
2022-09-04T02:17:09.556Z,14.32
2022-09-04T02:19:45.876Z,17.15
2022-09-04T02:25:16.106Z,18.70
2022-09-04T02:27:52.037Z,19.63
2022-09-04T02:30:20.876Z,21.52
2022-09-04T02:32:54.066Z,17.20
2022-09-04T02:35:30.936Z,17.55
2022-09-04T02:38:04.296Z,17.75
2022-09-04T02:40:50.197Z,18.10
2022-09-04T02:43:35.778Z,17.48
2022-09-04T02:46:19.236Z,18.23
2022-09-04T02:49:08.278Z,18.30
2022-09-04T02:51:44.777Z,18.15
2022-09-04T02:54:25.887Z,18.77
2022-09-04T02:57:33.717Z,17.08
2022-09-04T03:00:28.818Z,16.80
2022-09-04T03:03:02.937Z,18.08
2022-09-04T03:05:42.450Z,17.63
2022-09-04T03:08:18.616Z,17.00
2022-09-04T03:11:15.846Z,16.58
2022-09-04T03:13:48.917Z,18.50
2022-09-04T03:16:37.526Z,16.77
2022-09-04T03:19:11.397Z,16.88
2022-09-04T03:21:53.597Z,18.67
2022-09-04T03:24:46.529Z,18.00
2022-09-04T03:27:16.867Z,18.05
2022-09-04T03:29:46.997Z,19.02
2022-09-04T03:32:35.339Z,17.85
2022-09-04T03:35:14.947Z,17.88
2022-09-04T03:38:01.542Z,17.63
2022-09-04T03:40:38.128Z,15.30
2022-09-04T03:43:23.837Z,17.67
2022-09-04T03:46:03.406Z,17.45
2022-09-04T03:48:52.387Z,15.98
2022-09-04T03:51:38.506Z,16.73
2022-09-04T03:54:24.433Z,15.93
2022-09-04T03:56:51.938Z,15.02
2022-09-04T03:59:25.587Z,14.00
2022-09-04T04:01:58.919Z,14.60
2022-09-04T04:05:16.829Z,14.10
2022-09-04T04:07:52.788Z,13.25
2022-09-04T04:10:33.803Z,13.30
2022-09-04T04:13:36.597Z,13.80
2022-09-04T04:16:25.549Z,13.90
2022-09-04T04:19:17.556Z,16.52
2022-09-04T04:21:56.267Z,17.05
2022-09-04T04:24:39.596Z,18.92
2022-09-04T04:27:26.626Z,19.23
2022-09-04T04:30:07.856Z,20.00
2022-09-04T04:33:10.557Z,20.10
2022-09-04T04:36:13.466Z,19.90
2022-09-04T04:39:10.096Z,20.02
2022-09-04T04:42:05.910Z,20.55
2022-09-04T04:45:16.727Z,23.75
2022-09-04T04:47:49.476Z,22.60
2022-09-04T04:50:22.246Z,23.90
2022-09-04T04:52:57.357Z,25.10
2022-09-04T04:55:50.535Z,28.02
2022-09-04T04:58:43.556Z,25.55
2022-09-04T05:01:23.067Z,25.35
2022-09-04T05:04:40.888Z,26.58
2022-09-04T05:07:10.806Z,24.70
2022-09-04T05:10:07.376Z,25.77
2022-09-04T05:13:11.602Z,24.17
2022-09-04T05:16:05.055Z,25.25
2022-09-04T05:18:45.347Z,25.15
2022-09-04T05:21:21.798Z,24.50
2022-09-04T05:24:15.186Z,23.70
2022-09-04T05:27:07.936Z,22.88
2022-09-04T05:29:55.546Z,23.23
2022-09-04T05:32:28.796Z,22.08
2022-09-04T05:35:15.916Z,23.60
2022-09-04T05:37:43.506Z,25.25
2022-09-04T05:40:20.076Z,23.00
2022-09-04T05:43:06.879Z,22.48
2022-09-04T05:48:46.157Z,23.02
2022-09-04T05:51:43.899Z,20.52
2022-09-04T05:54:52.636Z,19.92
2022-09-04T05:57:38.536Z,16.88
2022-09-04T06:00:16.865Z,16.60
2022-09-04T06:02:53.547Z,16.30
2022-09-04T06:05:44.634Z,16.02
2022-09-04T06:08:33.269Z,14.38
2022-09-04T06:11:45.031Z,16.05
2022-09-04T06:14:45.836Z,15.63
2022-09-04T06:17:22.517Z,15.75
2022-09-04T06:22:55.715Z,17.00
2022-09-04T06:25:48.896Z,17.17
2022-09-04T06:28:38.176Z,17.40
2022-09-04T06:31:08.570Z,15.82
2022-09-04T06:33:42.118Z,14.55
2022-09-04T06:36:15.579Z,14.85
2022-09-04T06:39:03.136Z,15.13
2022-09-04T06:42:03.169Z,13.68
2022-09-04T06:44:51.295Z,12.93
2022-09-04T06:47:21.937Z,12.82
2022-09-04T06:50:08.956Z,11.90
2022-09-04T06:53:04.445Z,12.13
2022-09-04T06:55:59.957Z,11.70
2022-09-04T06:58:48.277Z,11.45
2022-09-04T07:01:26.463Z,10.80
2022-09-04T07:04:31.026Z,11.45
2022-09-04T07:07:40.166Z,10.80
2022-09-04T07:10:23.895Z,10.07
2022-09-04T07:13:10.509Z,9.60
2022-09-04T07:15:50.071Z,8.88
2022-09-04T07:18:30.186Z,8.75
2022-09-04T07:21:22.696Z,7.72
2022-09-04T07:24:13.606Z,7.82
2022-09-04T07:27:06.587Z,8.03
2022-09-04T07:29:38.746Z,8.57
2022-09-04T07:32:34.178Z,7.63
2022-09-04T07:35:28.717Z,7.20
2022-09-04T07:38:29.816Z,5.38
2022-09-04T07:41:17.848Z,5.70
2022-09-04T07:44:24.556Z,4.70
2022-09-04T07:46:58.276Z,5.25
2022-09-04T07:49:42.825Z,4.53
2022-09-04T07:52:44.956Z,4.10
2022-09-04T07:55:24.176Z,4.47
2022-09-04T07:58:22.977Z,4.65
2022-09-04T08:00:59.995Z,4.30
2022-09-04T08:03:54.509Z,3.97
2022-09-04T08:06:37.897Z,4.15
2022-09-04T08:09:50.416Z,4.63
2022-09-04T08:12:53.586Z,5.75
2022-09-04T08:15:42.974Z,4.38
2022-09-04T08:18:20.358Z,4.07
2022-09-04T08:21:03.906Z,4.55
2022-09-04T08:23:58.775Z,3.95
2022-09-04T08:27:00.047Z,4.60
2022-09-04T08:29:42.996Z,4.35
2022-09-04T08:32:32.463Z,4.28
2022-09-04T08:35:18.387Z,4.30
2022-09-04T08:38:00.628Z,4.18
2022-09-04T08:40:27.986Z,4.70
2022-09-04T08:43:04.445Z,5.10
2022-09-04T08:45:42.486Z,4.00
2022-09-04T08:48:35.935Z,4.70
2022-09-04T08:51:12.358Z,3.80
2022-09-04T08:54:18.465Z,4.10
2022-09-04T08:57:01.135Z,4.78
2022-09-04T08:59:40.375Z,4.85
2022-09-04T09:02:19.891Z,3.47
2022-09-04T09:05:10.215Z,3.22
2022-09-04T09:08:30.975Z,3.78
2022-09-04T09:11:36.897Z,3.05
2022-09-04T09:14:12.739Z,3.35
2022-09-04T09:16:43.458Z,2.88
2022-09-04T09:19:22.657Z,3.42
2022-09-04T09:22:16.886Z,3.35
2022-09-04T09:25:09.945Z,3.97
2022-09-04T09:27:43.643Z,3.85
2022-09-04T09:30:21.457Z,4.28
2022-09-04T09:33:20.762Z,3.33
2022-09-04T09:35:58.230Z,3.55
2022-09-04T09:38:38.137Z,3.45
2022-09-04T09:41:37.495Z,3.30
2022-09-04T09:44:26.926Z,3.85
2022-09-04T09:47:23.055Z,3.53
2022-09-04T09:50:02.635Z,3.30
2022-09-04T09:52:48.996Z,3.33
2022-09-04T09:55:49.676Z,3.65
2022-09-04T09:58:35.176Z,3.38
2022-09-04T10:01:41.566Z,3.85
2022-09-04T10:04:34.138Z,3.67
2022-09-04T10:07:23.145Z,3.13
2022-09-04T10:10:28.304Z,3.30
2022-09-04T10:13:28.696Z,3.38
2022-09-04T10:16:33.632Z,4.30
2022-09-04T10:19:22.958Z,4.10
2022-09-04T10:22:11.768Z,3.50
2022-09-04T10:25:00.605Z,3.25
2022-09-04T10:27:40.586Z,3.70
2022-09-04T10:30:17.646Z,2.95
2022-09-04T10:33:16.885Z,3.53
2022-09-04T10:36:07.966Z,3.38
2022-09-04T10:39:02.205Z,3.22
2022-09-04T10:41:47.015Z,3.13
2022-09-04T10:44:23.248Z,4.13
2022-09-04T10:47:03.345Z,3.25
2022-09-04T10:50:05.955Z,3.33
2022-09-04T10:52:49.686Z,3.65
2022-09-04T10:55:54.506Z,3.97
2022-09-04T10:58:40.935Z,3.55
2022-09-04T11:01:27.883Z,2.85
2022-09-04T11:04:03.038Z,3.55
2022-09-04T11:07:01.546Z,4.27
2022-09-04T11:09:53.955Z,3.40
2022-09-04T11:13:02.505Z,3.72
2022-09-04T11:15:41.025Z,5.32
2022-09-04T11:18:26.854Z,3.72
2022-09-04T11:21:46.207Z,3.45
2022-09-04T11:25:01.803Z,4.30
2022-09-04T11:27:49.476Z,4.00
2022-09-04T11:30:21.715Z,4.20
2022-09-04T11:33:12.807Z,3.97
2022-09-04T11:36:24.755Z,4.80
2022-09-04T11:38:58.106Z,5.22
2022-09-04T11:42:03.265Z,4.10
2022-09-04T11:44:45.345Z,4.07
2022-09-04T11:47:21.716Z,3.80
2022-09-04T11:50:16.936Z,4.75
2022-09-04T11:53:21.932Z,3.63
2022-09-04T11:56:08.855Z,3.08
2022-09-04T11:58:48.115Z,4.03
2022-09-04T12:01:24.835Z,3.67
2022-09-04T12:04:07.334Z,3.47
2022-09-04T12:07:02.347Z,3.00
2022-09-04T12:09:41.463Z,2.97
2022-09-04T12:12:27.616Z,3.28
2022-09-04T12:15:23.456Z,2.90
2022-09-04T12:18:09.795Z,2.60
2022-09-04T12:23:47.705Z,3.40
2022-09-04T12:26:24.520Z,2.92
2022-09-04T12:29:17.568Z,2.85
2022-09-04T12:32:07.550Z,3.35
2022-09-04T12:34:56.855Z,3.20
2022-09-04T12:37:47.605Z,3.28
2022-09-04T12:40:40.956Z,3.05
2022-09-04T12:43:09.075Z,2.80
2022-09-04T12:46:04.257Z,3.08
2022-09-04T12:49:26.488Z,2.80
2022-09-04T12:52:09.156Z,2.95
2022-09-04T12:54:42.274Z,2.80
2022-09-04T12:57:26.047Z,2.67
2022-09-04T13:00:10.995Z,2.65
2022-09-04T13:03:04.287Z,2.72
2022-09-04T13:05:49.772Z,2.50
2022-09-04T13:08:26.935Z,2.65
2022-09-04T13:11:01.724Z,2.95
2022-09-04T13:13:55.757Z,2.63
2022-09-04T13:16:33.647Z,4.15
2022-09-04T13:19:04.296Z,3.00
2022-09-04T13:21:57.576Z,2.85
2022-09-04T13:25:02.945Z,10.05
2022-09-04T13:27:30.439Z,2.53
2022-09-04T13:30:22.163Z,3.45
2022-09-04T13:33:24.841Z,4.00
2022-09-04T13:35:59.486Z,6.65
2022-09-04T13:38:52.966Z,2.80
2022-09-04T13:41:45.306Z,4.15
2022-09-04T13:44:43.815Z,3.70
2022-09-04T13:47:17.258Z,3.35
2022-09-04T13:50:10.194Z,2.75
2022-09-04T13:53:05.618Z,18.42
2022-09-04T13:55:39.846Z,8.43
2022-09-04T13:58:21.037Z,4.82
2022-09-04T14:00:53.605Z,9.50
2022-09-04T14:03:37.939Z,8.25
2022-09-04T14:06:11.362Z,8.10
2022-09-04T14:08:40.713Z,7.93
2022-09-04T14:11:45.557Z,4.45
2022-09-04T14:14:33.486Z,27.52
2022-09-04T14:17:01.396Z,4.72
2022-09-04T14:19:47.477Z,4.07
2022-09-04T14:22:43.667Z,6.63
2022-09-04T14:25:21.725Z,4.85
2022-09-04T14:28:16.543Z,4.05
2022-09-04T14:31:34.071Z,5.05
2022-09-04T14:34:19.306Z,4.07
2022-09-04T14:36:57.366Z,15.30
2022-09-04T14:39:40.611Z,9.25
2022-09-04T14:42:33.797Z,12.68
2022-09-04T14:45:13.456Z,7.97
2022-09-04T14:47:53.956Z,4.55
2022-09-04T14:50:28.846Z,3.50
2022-09-04T14:52:56.456Z,3.28
2022-09-04T14:55:29.897Z,3.05
2022-09-04T14:58:19.802Z,3.25
2022-09-04T15:00:57.567Z,3.13
2022-09-04T15:03:34.004Z,8.98
2022-09-04T15:06:17.289Z,8.98
2022-09-04T15:08:50.146Z,3.33
2022-09-04T15:11:35.019Z,6.15
2022-09-04T15:14:28.679Z,4.18
2022-09-04T15:17:03.766Z,9.02
2022-09-04T15:19:53.357Z,5.22
2022-09-04T15:22:37.936Z,7.18
2022-09-04T15:25:12.086Z,4.40
2022-09-04T15:27:42.258Z,3.22
2022-09-04T15:30:20.816Z,3.10
2022-09-04T15:32:49.977Z,3.22
2022-09-04T15:35:21.206Z,19.20
2022-09-04T15:37:52.118Z,6.30
2022-09-04T15:40:32.108Z,10.32
2022-09-04T15:43:17.966Z,10.80
2022-09-04T15:45:51.746Z,3.75
2022-09-04T15:48:56.326Z,4.28
2022-09-04T15:51:53.118Z,5.25
2022-09-04T15:54:51.427Z,8.30
2022-09-04T15:57:25.406Z,6.50
2022-09-04T15:59:59.679Z,5.53
2022-09-04T16:02:38.907Z,4.85
2022-09-04T16:05:24.097Z,4.65
2022-09-04T16:08:06.718Z,5.03
2022-09-04T16:11:06.836Z,4.78
2022-09-04T16:13:56.977Z,4.10
2022-09-04T16:16:49.816Z,4.65
2022-09-04T16:19:33.106Z,5.25
2022-09-04T16:22:19.566Z,4.95
2022-09-04T16:24:51.207Z,4.40
2022-09-04T16:27:24.290Z,4.57
2022-09-04T16:30:03.715Z,8.40
2022-09-04T16:32:35.442Z,9.02
2022-09-04T16:35:17.697Z,5.30
2022-09-04T16:38:19.980Z,4.78
2022-09-04T16:41:11.218Z,6.45
2022-09-04T16:43:39.797Z,7.97
2022-09-04T16:46:27.671Z,6.82
2022-09-04T16:49:00.956Z,9.25
2022-09-04T16:51:42.033Z,9.63
2022-09-04T16:54:13.706Z,11.05
2022-09-04T16:56:50.075Z,12.98
2022-09-04T16:59:41.855Z,13.93
2022-09-04T17:02:19.766Z,8.32
2022-09-04T17:04:57.114Z,37.20
2022-09-04T17:07:34.096Z,27.10
2022-09-04T17:10:11.707Z,13.70
2022-09-04T17:12:52.868Z,10.18
2022-09-04T17:15:23.555Z,13.43
2022-09-04T17:17:54.153Z,12.85
2022-09-04T17:21:39.672Z,10.07
2022-09-04T17:29:01.514Z,11.63
2022-09-04T17:29:07.872Z,12.73
2022-09-04T17:29:39.506Z,17.20
2022-09-04T17:34:07.093Z,17.02
2022-09-04T17:40:42.298Z,17.40
2022-09-04T17:40:48.434Z,13.50
2022-09-04T17:41:53.102Z,14.65
2022-09-04T17:44:26.425Z,20.58
2022-09-04T17:47:00.175Z,21.15
2022-09-04T17:49:34.653Z,17.52
2022-09-04T17:52:09.224Z,13.20
2022-09-04T17:54:49.189Z,13.02
2022-09-04T17:57:19.925Z,15.38
2022-09-04T18:00:10.306Z,15.25
2022-09-04T18:03:02.064Z,15.75
2022-09-04T18:05:53.565Z,14.55
2022-09-04T18:08:32.915Z,16.17
2022-09-04T18:11:40.977Z,14.00
2022-09-04T18:14:32.107Z,13.60
2022-09-04T18:17:22.979Z,12.50
2022-09-04T18:19:58.195Z,12.73
2022-09-04T18:22:44.725Z,12.83
2022-09-04T18:25:32.336Z,15.68
2022-09-04T18:28:33.965Z,14.73
2022-09-04T18:37:08.360Z,14.80
2022-09-04T18:37:21.334Z,14.70
2022-09-04T18:37:44.602Z,16.83
2022-09-04T18:41:33.897Z,14.40
2022-09-04T18:49:23.830Z,15.90
2022-09-04T18:50:36.086Z,15.88
2022-09-04T18:50:48.103Z,16.35
2022-09-04T18:52:00.717Z,16.17
2022-09-04T18:54:42.703Z,14.07
2022-09-04T18:57:33.435Z,12.85
2022-09-04T19:00:13.685Z,14.40
2022-09-04T19:02:53.456Z,13.73
2022-09-04T19:05:30.656Z,13.32
2022-09-04T19:08:19.850Z,17.98
2022-09-04T19:11:01.455Z,15.95
2022-09-04T19:13:48.275Z,17.33
2022-09-04T19:16:39.716Z,22.10
2022-09-04T19:19:09.064Z,34.80
2022-09-04T19:22:03.726Z,27.55
2022-09-04T19:25:05.846Z,22.52
2022-09-04T19:27:45.347Z,16.58
2022-09-04T19:30:19.778Z,14.82
2022-09-04T19:32:56.945Z,14.02
2022-09-04T19:36:06.115Z,14.40
2022-09-04T19:44:55.104Z,16.15
2022-09-04T19:45:59.170Z,20.88
2022-09-04T19:46:01.661Z,20.83
2022-09-04T19:48:21.068Z,15.98
2022-09-04T19:53:19.482Z,14.05
2022-09-04T19:53:57.011Z,14.07
2022-09-04T19:56:54.796Z,14.85
2022-09-04T19:59:50.275Z,14.88
2022-09-04T20:02:37.296Z,14.82
2022-09-04T20:05:16.822Z,14.63
2022-09-04T20:07:59.284Z,17.50
2022-09-04T20:10:45.738Z,18.75
2022-09-04T20:13:39.455Z,19.17
2022-09-04T20:16:21.300Z,20.90
2022-09-04T20:19:04.024Z,21.75
2022-09-04T20:21:48.036Z,28.20
2022-09-04T20:24:32.716Z,30.88
2022-09-04T20:27:06.256Z,29.15
2022-09-04T20:29:44.316Z,29.45
2022-09-04T20:32:42.756Z,24.92
2022-09-04T20:35:20.533Z,24.48
2022-09-04T20:38:23.113Z,27.65
2022-09-04T20:41:22.286Z,43.60
2022-09-04T20:44:01.696Z,42.35
2022-09-04T20:51:13.749Z,30.35
2022-09-04T20:52:52.242Z,22.75
2022-09-04T20:52:58.242Z,20.90
2022-09-04T20:55:46.412Z,22.13
2022-09-04T21:03:05.305Z,24.23
2022-09-04T21:03:10.112Z,26.98
2022-09-04T21:04:41.851Z,24.42
2022-09-04T21:07:27.524Z,30.67
2022-09-04T21:10:32.964Z,29.27
2022-09-04T21:13:22.842Z,29.00
2022-09-04T21:16:11.892Z,25.38
2022-09-04T21:19:29.796Z,27.83
2022-09-04T21:22:02.815Z,26.88
2022-09-04T21:24:59.576Z,29.42
2022-09-04T21:28:00.816Z,28.25
2022-09-04T21:30:58.418Z,28.65
2022-09-04T21:34:26.156Z,28.33
2022-09-04T21:37:17.597Z,29.20
2022-09-04T21:40:49.367Z,28.70
2022-09-04T21:43:12.926Z,27.67
2022-09-04T21:46:06.336Z,29.90
2022-09-04T21:48:56.676Z,27.75
2022-09-04T21:51:34.317Z,27.20
2022-09-04T21:54:04.377Z,22.55
2022-09-04T22:02:27.114Z,21.80
2022-09-04T22:02:36.187Z,18.88
2022-09-04T22:03:51.385Z,20.15
2022-09-04T22:06:42.496Z,19.60
2022-09-04T22:13:39.071Z,19.88
2022-09-04T22:13:46.120Z,21.58
2022-09-04T22:16:03.531Z,21.85
2022-09-04T22:19:01.638Z,24.00
2022-09-04T22:21:55.443Z,24.25
2022-09-04T22:25:08.196Z,25.25
2022-09-04T22:28:09.782Z,25.45
2022-09-04T22:30:49.166Z,24.70
2022-09-04T22:34:16.429Z,26.38
2022-09-04T22:37:17.974Z,23.40
2022-09-04T22:40:00.608Z,26.08
2022-09-04T22:42:50.949Z,25.67
2022-09-04T22:46:04.306Z,23.80
2022-09-04T22:49:12.379Z,23.38
2022-09-04T22:51:45.617Z,18.67
2022-09-04T22:54:13.056Z,21.67
2022-09-04T22:56:53.400Z,20.77
2022-09-04T22:59:52.075Z,22.60
2022-09-04T23:03:09.162Z,22.92
2022-09-04T23:05:48.737Z,26.00
2022-09-04T23:13:41.770Z,25.50
2022-09-04T23:13:48.890Z,25.00
2022-09-04T23:14:47.186Z,22.60
2022-09-04T23:17:59.553Z,24.45
2022-09-04T23:26:36.493Z,19.60
2022-09-04T23:26:45.504Z,20.83
2022-09-04T23:27:13.276Z,16.98
2022-09-04T23:30:26.532Z,17.48
2022-09-04T23:33:09.726Z,19.17
2022-09-04T23:36:10.956Z,24.60
2022-09-04T23:39:03.376Z,29.48
2022-09-04T23:42:02.626Z,31.05
2022-09-04T23:44:57.947Z,33.30
2022-09-04T23:48:03.216Z,32.03
2022-09-04T23:51:00.936Z,35.65
2022-09-04T23:54:21.812Z,34.40
2022-09-04T23:57:26.664Z,30.40
